Time;durP1;ratioP1;P1;durP2;ratioP2;P2;SDS_P1;SDS_P2;PMS_P1;PMS_P2;Temp;Humidity;BMP_temperature;BMP_pressure;BME280_temperature;BME280_humidity;BME280_pressure;Samples;Min_cycle;Max_cycle;Signal;HPM_P1;HPM_P2
2023/02/19 00:01:19;;;;;;;;;8.25;8.00;;;;;-147.17;100.00;-15917.19;4993251;28;51209;-60
2023/02/19 00:03:51;;;;;;;;;11.50;11.25;;;;;-147.17;100.00;-15917.19;5025286;28;51232;-60
2023/02/19 00:06:17;;;;;;;;;12.75;11.00;;;;;-147.17;100.00;-15917.19;5017335;28;52022;-61
2023/02/19 00:08:43;;;;;;;;;9.25;9.25;;;;;-147.17;100.00;-15917.19;5014054;28;51041;-60
2023/02/19 00:11:11;;;;;;;;;9.00;9.00;;;;;-147.17;100.00;-15917.19;5023792;28;51185;-60
2023/02/19 00:13:39;;;;;;;;;8.25;8.25;;;;;-147.17;100.00;-15917.19;5013306;28;50892;-60
2023/02/19 00:16:12;;;;;;;;;6.50;6.50;;;;;-147.17;100.00;-15917.19;5012005;28;52440;-60
2023/02/19 00:18:38;;;;;;;;;8.25;8.25;;;;;-147.17;100.00;-15917.19;5002836;28;51194;-61
2023/02/19 00:21:04;;;;;;;;;9.00;9.00;;;;;-147.17;100.00;-15917.19;5014147;28;51152;-61
2023/02/19 00:23:30;;;;;;;;;13.00;12.50;;;;;-147.17;100.00;-15917.19;5025626;28;51288;-61
2023/02/19 00:25:55;;;;;;;;;8.25;7.50;;;;;-147.17;100.00;-15917.19;5012842;28;52198;-60
2023/02/19 00:28:21;;;;;;;;;11.25;9.25;;;;;-147.17;100.00;-15917.19;5017740;28;51068;-59
2023/02/19 00:30:47;;;;;;;;;9.00;7.25;;;;;-147.17;100.00;-15917.19;5016810;28;51176;-60
2023/02/19 00:33:13;;;;;;;;;6.50;6.50;;;;;-147.17;100.00;-15917.19;5020466;28;51074;-60
2023/02/19 00:35:38;;;;;;;;;7.00;6.00;;;;;-147.17;100.00;-15917.19;5013735;28;51757;-60
2023/02/19 00:38:04;;;;;;;;;11.50;10.75;;;;;-147.17;100.00;-15917.19;5012537;28;51010;-60
2023/02/19 00:40:30;;;;;;;;;6.25;6.00;;;;;-147.17;100.00;-15917.19;5021242;28;51138;-60
2023/02/19 00:42:55;;;;;;;;;11.25;10.50;;;;;-147.17;100.00;-15917.19;5015501;28;51272;-60
2023/02/19 00:45:21;;;;;;;;;10.50;8.75;;;;;-147.17;100.00;-15917.19;5021159;28;52523;-61
2023/02/19 00:47:47;;;;;;;;;8.75;8.75;;;;;-147.17;100.00;-15917.19;5011729;28;51553;-60
2023/02/19 00:50:12;;;;;;;;;14.25;13.25;;;;;-147.17;100.00;-15917.19;5011644;28;51343;-61
2023/02/19 00:52:38;;;;;;;;;11.00;9.00;;;;;-147.17;100.00;-15917.19;5012688;28;51279;-61
2023/02/19 00:55:04;;;;;;;;;9.25;9.25;;;;;-147.17;100.00;-15917.19;5001775;28;53725;-60
2023/02/19 00:57:29;;;;;;;;;9.00;9.00;;;;;-147.17;100.00;-15917.19;5007333;28;51489;-60
2023/02/19 00:59:54;;;;;;;;;16.00;12.25;;;;;-147.17;100.00;-15917.19;5029539;28;51122;-60
2023/02/19 01:02:19;;;;;;;;;11.25;10.75;;;;;-147.17;100.00;-15917.19;5028456;28;51135;-59
2023/02/19 01:04:45;;;;;;;;;9.50;8.25;;;;;-147.17;100.00;-15917.19;5029250;28;51788;-60
2023/02/19 01:07:10;;;;;;;;;15.50;15.00;;;;;-147.17;100.00;-15917.19;5019473;28;51228;-61
2023/02/19 01:09:37;;;;;;;;;9.00;8.75;;;;;-147.17;100.00;-15917.19;5018878;28;51158;-61
2023/02/19 01:12:04;;;;;;;;;8.50;8.00;;;;;-147.17;100.00;-15917.19;5014356;28;51005;-59
2023/02/19 01:14:29;;;;;;;;;18.25;17.25;;;;;-147.17;100.00;-15917.19;5010469;28;51125;-61
2023/02/19 01:16:54;;;;;;;;;7.50;7.00;;;;;-147.17;100.00;-15917.19;5027616;28;51101;-60
2023/02/19 01:19:20;;;;;;;;;10.25;8.50;;;;;-147.17;100.00;-15917.19;5015007;28;51226;-59
2023/02/19 01:21:45;;;;;;;;;6.75;6.75;;;;;-147.17;100.00;-15917.19;5015075;28;51133;-61
2023/02/19 01:24:11;;;;;;;;;11.50;10.75;;;;;-147.17;100.00;-15917.19;5011248;28;51677;-60
2023/02/19 01:26:36;;;;;;;;;17.75;17.00;;;;;-147.17;100.00;-15917.19;5023175;28;50892;-60
2023/02/19 01:29:02;;;;;;;;;10.75;9.75;;;;;-147.17;100.00;-15917.19;5015486;28;51175;-60
2023/02/19 01:31:28;;;;;;;;;9.25;8.00;;;;;-147.17;100.00;-15917.19;5019182;28;51102;-60
2023/02/19 01:33:56;;;;;;;;;17.25;16.75;;;;;-147.17;100.00;-15917.19;5005848;28;51827;-60
2023/02/19 01:36:22;;;;;;;;;9.50;9.25;;;;;-147.17;100.00;-15917.19;4996978;28;51139;-60
2023/02/19 01:38:48;;;;;;;;;9.25;9.25;;;;;-147.17;100.00;-15917.19;5020149;28;51215;-60
2023/02/19 01:41:20;;;;;;;;;14.00;12.50;;;;;-147.17;100.00;-15917.19;5013027;28;51170;-60
2023/02/19 01:44:16;;;;;;;;;10.00;9.75;;;;;-147.17;100.00;-15917.19;5022759;28;52006;-61
2023/02/19 01:46:43;;;;;;;;;13.75;11.50;;;;;-147.17;100.00;-15917.19;4994042;28;51240;-60
2023/02/19 01:49:20;;;;;;;;;7.00;6.00;;;;;-147.17;100.00;-15917.19;5029382;28;51135;-61
2023/02/19 01:51:50;;;;;;;;;16.25;15.50;;;;;-147.17;100.00;-15917.19;5020433;28;51176;-61
2023/02/19 01:54:20;;;;;;;;;12.25;12.00;;;;;-147.17;100.00;-15917.19;5020984;28;52112;-62
2023/02/19 01:56:48;;;;;;;;;7.75;7.00;;;;;-147.17;100.00;-15917.19;5023295;28;51300;-61
2023/02/19 01:59:14;;;;;;;;;7.25;6.50;;;;;-147.17;100.00;-15917.19;5025172;28;50914;-61
2023/02/19 02:01:40;;;;;;;;;7.75;7.00;;;;;-147.17;100.00;-15917.19;5023351;28;51286;-60
2023/02/19 02:04:09;;;;;;;;;9.75;8.25;;;;;-147.17;100.00;-15917.19;5028417;28;51741;-61
2023/02/19 02:06:50;;;;;;;;;5.50;5.50;;;;;-147.17;100.00;-15917.19;5022749;28;51018;-60
2023/02/19 02:12:03;;;;;;;;;6.00;6.00;;;;;-147.17;100.00;-15917.19;5025329;28;51134;-60
2023/02/19 02:14:32;;;;;;;;;5.00;5.00;;;;;-147.17;100.00;-15917.19;5020124;28;51928;-61
2023/02/19 02:17:17;;;;;;;;;8.00;8.00;;;;;-147.17;100.00;-15917.19;5026336;28;51029;-60
2023/02/19 02:20:02;;;;;;;;;6.00;6.00;;;;;-147.17;100.00;-15917.19;5019634;28;51170;-60
2023/02/19 02:22:29;;;;;;;;;5.67;5.00;;;;;-147.17;100.00;-15917.19;5029808;28;51131;-60
2023/02/19 02:25:22;;;;;;;;;7.33;7.00;;;;;-147.17;100.00;-15917.19;5012591;28;52043;-60
2023/02/19 02:28:00;;;;;;;;;6.00;6.00;;;;;-147.17;100.00;-15917.19;5014855;28;51047;-60
2023/02/19 02:30:40;;;;;;;;;6.33;5.00;;;;;-147.17;100.00;-15917.19;5006749;28;51098;-61
2023/02/19 02:33:15;;;;;;;;;6.67;5.67;;;;;-147.17;100.00;-15917.19;5003856;28;51147;-60
2023/02/19 02:35:49;;;;;;;;;4.00;4.00;;;;;-147.17;100.00;-15917.19;5017701;28;52196;-60
2023/02/19 02:38:19;;;;;;;;;4.00;3.67;;;;;-147.17;100.00;-15917.19;5024526;28;51078;-61
2023/02/19 02:40:46;;;;;;;;;4.00;3.67;;;;;-147.17;100.00;-15917.19;5017279;28;51121;-60
2023/02/19 02:43:12;;;;;;;;;5.00;5.00;;;;;-147.17;100.00;-15917.19;5025249;28;51820;-59
2023/02/19 02:45:38;;;;;;;;;4.67;4.67;;;;;-147.17;100.00;-15917.19;5028280;28;52025;-60
2023/02/19 02:48:28;;;;;;;;;5.00;4.67;;;;;-147.17;100.00;-15917.19;5027287;28;51295;-60
2023/02/19 02:51:10;;;;;;;;;5.00;4.00;;;;;-147.17;100.00;-15917.19;5019815;28;50985;-59
2023/02/19 02:56:36;;;;;;;;;5.00;4.00;;;;;-147.17;100.00;-15917.19;5025794;28;51168;-58
2023/02/19 02:59:07;;;;;;;;;4.67;3.00;;;;;-147.17;100.00;-15917.19;5009710;28;51332;-58
2023/02/19 03:07:37;;;;;;;;;3.00;3.00;;;;;-147.17;100.00;-15917.19;5022221;28;51424;-58
2023/02/19 03:10:09;;;;;;;;;4.00;4.00;;;;;-147.17;100.00;-15917.19;5021810;28;51200;-58
2023/02/19 03:21:01;;;;;;;;;1.33;1.33;;;;;-147.17;100.00;-15917.19;5023608;28;51121;-58
2023/02/19 03:26:17;;;;;;;;;3.00;3.00;;;;;-147.17;100.00;-15917.19;5021400;28;50897;-57
2023/02/19 03:31:33;;;;;;;;;3.00;2.00;;;;;-147.17;100.00;-15917.19;5017423;28;51220;-58
2023/02/19 03:34:03;;;;;;;;;4.00;4.00;;;;;-147.17;100.00;-15917.19;5028034;28;51177;-58
2023/02/19 03:36:36;;;;;;;;;5.67;4.33;;;;;-147.17;100.00;-15917.19;5017398;28;51116;-57
2023/02/19 03:39:07;;;;;;;;;1.00;1.00;;;;;-147.17;100.00;-15917.19;5013239;28;52847;-57
2023/02/19 03:41:35;;;;;;;;;1.00;1.00;;;;;-147.17;100.00;-15917.19;5025163;28;51160;-57
2023/02/19 03:44:23;;;;;;;;;3.00;3.00;;;;;-147.17;100.00;-15917.19;5032516;28;50911;-59
2023/02/19 03:47:04;;;;;;;;;3.00;3.00;;;;;-147.17;100.00;-15917.19;5019329;28;50988;-57
2023/02/19 03:49:58;;;;;;;;;2.00;2.00;;;;;-147.17;100.00;-15917.19;5013760;28;51906;-58
2023/02/19 03:52:39;;;;;;;;;1.67;1.00;;;;;-147.17;100.00;-15917.19;5012456;28;51178;-58
2023/02/19 03:55:04;;;;;;;;;1.00;1.00;;;;;-147.17;100.00;-15917.19;5014582;28;52861;-58
2023/02/19 03:58:23;;;;;;;;;1.00;1.00;;;;;-147.17;100.00;-15917.19;5016152;28;51264;-58
2023/02/19 04:00:57;;;;;;;;;1.33;1.33;;;;;-147.17;100.00;-15917.19;4975782;28;51145;-58
2023/02/19 04:03:35;;;;;;;;;1.00;1.00;;;;;-147.17;100.00;-15917.19;5014341;28;51288;-58
2023/02/19 04:06:09;;;;;;;;;1.00;1.00;;;;;-147.17;100.00;-15917.19;5012866;28;51038;-58
2023/02/19 04:08:37;;;;;;;;;0.33;0.00;;;;;-147.17;100.00;-15917.19;5027534;28;51034;-59
2023/02/19 04:11:03;;;;;;;;;0.00;0.00;;;;;-147.17;100.00;-15917.19;5014235;28;51127;-59
2023/02/19 04:13:35;;;;;;;;;2.00;0.00;;;;;-147.17;100.00;-15917.19;5030050;28;51200;-58
2023/02/19 04:16:07;;;;;;;;;0.00;0.00;;;;;-147.17;100.00;-15917.19;5029031;28;51165;-58
2023/02/19 04:18:37;;;;;;;;;0.00;0.00;;;;;-147.17;100.00;-15917.19;5010794;28;51175;-59
2023/02/19 04:21:05;;;;;;;;;0.00;0.00;;;;;-147.17;100.00;-15917.19;5024028;28;52063;-59
2023/02/19 04:23:37;;;;;;;;;1.33;1.00;;;;;-147.17;100.00;-15917.19;5015744;28;51255;-59
2023/02/19 04:26:03;;;;;;;;;0.00;0.00;;;;;-147.17;100.00;-15917.19;5017335;28;50955;-59
2023/02/19 04:28:29;;;;;;;;;0.00;0.00;;;;;-147.17;100.00;-15917.19;5013018;28;51403;-59
2023/02/19 04:30:55;;;;;;;;;0.67;0.67;;;;;-147.17;100.00;-15917.19;5023020;28;52951;-59
2023/02/19 04:33:20;;;;;;;;;0.00;0.00;;;;;-147.17;100.00;-15917.19;5014111;28;51185;-59
2023/02/19 04:35:46;;;;;;;;;0.00;0.00;;;;;-147.17;100.00;-15917.19;5023978;28;51399;-58
2023/02/19 04:38:13;;;;;;;;;0.00;0.00;;;;;-147.17;100.00;-15917.19;5016882;28;51411;-58
2023/02/19 04:40:38;;;;;;;;;1.00;0.00;;;;;-147.17;100.00;-15917.19;5003846;28;53818;-58
2023/02/19 04:43:04;;;;;;;;;0.00;0.00;;;;;-147.17;100.00;-15917.19;5004536;28;51130;-58
2023/02/19 04:45:29;;;;;;;;;0.67;0.67;;;;;-147.17;100.00;-15917.19;5027419;28;52427;-64
2023/02/19 04:47:56;;;;;;;;;0.00;0.00;;;;;-147.17;100.00;-15917.19;5032981;28;51094;-59
2023/02/19 04:50:22;;;;;;;;;0.00;0.00;;;;;-147.17;100.00;-15917.19;5021532;28;51376;-59
2023/02/19 04:52:47;;;;;;;;;1.00;0.00;;;;;-147.17;100.00;-15917.19;5021428;28;50992;-59
2023/02/19 04:55:13;;;;;;;;;0.00;0.00;;;;;-147.17;100.00;-15917.19;5024246;28;51144;-58
2023/02/19 04:57:38;;;;;;;;;1.00;0.00;;;;;-147.17;100.00;-15917.19;5012830;28;51227;-58
2023/02/19 05:00:04;;;;;;;;;2.00;2.00;;;;;-147.17;100.00;-15917.19;5015110;28;50956;-58
2023/02/19 05:02:30;;;;;;;;;0.33;0.33;;;;;-147.17;100.00;-15917.19;5025702;28;51310;-59
2023/02/19 05:04:55;;;;;;;;;1.00;1.00;;;;;-147.17;100.00;-15917.19;4997989;28;50976;-58
2023/02/19 05:07:20;;;;;;;;;0.00;0.00;;;;;-147.17;100.00;-15917.19;5032103;28;51375;-58
2023/02/19 05:09:46;;;;;;;;;1.00;0.00;;;;;-147.17;100.00;-15917.19;5010284;28;53962;-58
2023/02/19 05:12:11;;;;;;;;;0.00;0.00;;;;;-147.17;100.00;-15917.19;5027078;28;50997;-59
2023/02/19 05:14:36;;;;;;;;;0.67;0.33;;;;;-147.17;100.00;-15917.19;5007535;28;51023;-57
2023/02/19 05:17:02;;;;;;;;;0.67;0.33;;;;;-147.17;100.00;-15917.19;5022786;28;51083;-56
2023/02/19 05:19:27;;;;;;;;;0.00;0.00;;;;;-147.17;100.00;-15917.19;5028117;28;51654;-58
2023/02/19 05:21:52;;;;;;;;;0.00;0.00;;;;;-147.17;100.00;-15917.19;5029290;28;51116;-58
2023/02/19 05:24:18;;;;;;;;;1.00;0.33;;;;;-147.17;100.00;-15917.19;5016190;28;51176;-60
2023/02/19 05:26:43;;;;;;;;;0.00;0.00;;;;;-147.17;100.00;-15917.19;5026050;28;51249;-59
2023/02/19 05:29:09;;;;;;;;;1.00;0.00;;;;;-147.17;100.00;-15917.19;5024164;28;51960;-59
2023/02/19 05:31:34;;;;;;;;;1.00;0.33;;;;;-147.17;100.00;-15917.19;5020539;28;51008;-58
2023/02/19 05:34:00;;;;;;;;;0.00;0.00;;;;;-147.17;100.00;-15917.19;5029798;28;51208;-58
2023/02/19 05:36:25;;;;;;;;;0.67;0.67;;;;;-147.17;100.00;-15917.19;5025902;28;51497;-58
2023/02/19 05:38:53;;;;;;;;;1.00;0.00;;;;;-147.17;100.00;-15917.19;5018766;28;51716;-58
2023/02/19 05:41:21;;;;;;;;;0.33;0.00;;;;;-147.17;100.00;-15917.19;5017441;28;50917;-59
2023/02/19 05:43:48;;;;;;;;;0.67;0.00;;;;;-147.17;100.00;-15917.19;5024406;28;51201;-59
2023/02/19 05:46:15;;;;;;;;;1.00;0.00;;;;;-147.17;100.00;-15917.19;5016280;28;51408;-58
2023/02/19 05:48:40;;;;;;;;;0.00;0.00;;;;;-147.17;100.00;-15917.19;5021312;28;51899;-58
2023/02/19 05:51:08;;;;;;;;;1.33;0.00;;;;;-147.17;100.00;-15917.19;5014777;28;51205;-57
2023/02/19 05:53:34;;;;;;;;;0.00;0.00;;;;;-147.17;100.00;-15917.19;5026997;28;51107;-58
2023/02/19 05:56:00;;;;;;;;;1.33;1.00;;;;;-147.17;100.00;-15917.19;5024074;28;50938;-57
2023/02/19 05:58:27;;;;;;;;;2.00;1.00;;;;;-147.17;100.00;-15917.19;5030462;28;51661;-57
2023/02/19 06:00:52;;;;;;;;;0.33;0.33;;;;;-147.17;100.00;-15917.19;5032753;28;51016;-59
2023/02/19 06:03:18;;;;;;;;;0.00;0.00;;;;;-147.17;100.00;-15917.19;5029704;28;51099;-59
2023/02/19 06:05:43;;;;;;;;;1.00;1.00;;;;;-147.17;100.00;-15917.19;5035354;28;51410;-58
2023/02/19 06:08:13;;;;;;;;;0.00;0.00;;;;;-147.17;100.00;-15917.19;5015243;28;51152;-59
2023/02/19 06:10:40;;;;;;;;;2.00;1.00;;;;;-147.17;100.00;-15917.19;5020165;28;50944;-58
2023/02/19 06:13:06;;;;;;;;;0.00;0.00;;;;;-147.17;100.00;-15917.19;5032008;28;51019;-58
2023/02/19 06:15:32;;;;;;;;;1.00;1.00;;;;;-147.17;100.00;-15917.19;5027032;28;51155;-58
2023/02/19 06:17:57;;;;;;;;;3.00;2.00;;;;;-147.17;100.00;-15917.19;5020539;28;51259;-58
2023/02/19 06:20:22;;;;;;;;;2.00;1.67;;;;;-147.17;100.00;-15917.19;5016961;28;51181;-58
2023/02/19 06:22:51;;;;;;;;;2.00;2.00;;;;;-147.17;100.00;-15917.19;5020420;28;51101;-57
2023/02/19 06:25:17;;;;;;;;;2.00;2.00;;;;;-147.17;100.00;-15917.19;5017319;28;51317;-58
2023/02/19 06:27:43;;;;;;;;;2.00;2.00;;;;;-147.17;100.00;-15917.19;5020138;28;51429;-59
2023/02/19 06:30:09;;;;;;;;;2.00;2.00;;;;;-147.17;100.00;-15917.19;5024427;28;51333;-57
2023/02/19 06:32:37;;;;;;;;;1.67;1.67;;;;;-147.17;100.00;-15917.19;5019876;28;51147;-58
2023/02/19 06:35:03;;;;;;;;;2.00;2.00;;;;;-147.17;100.00;-15917.19;5028327;28;51355;-58
2023/02/19 06:37:28;;;;;;;;;2.00;1.67;;;;;-147.17;100.00;-15917.19;5024663;28;51831;-58
2023/02/19 06:39:54;;;;;;;;;1.00;1.00;;;;;-147.17;100.00;-15917.19;5025002;28;51393;-59
2023/02/19 06:42:19;;;;;;;;;3.00;2.33;;;;;-147.17;100.00;-15917.19;5027175;28;51861;-57
2023/02/19 06:44:44;;;;;;;;;3.00;3.00;;;;;-147.17;100.00;-15917.19;5003182;28;51186;-58
2023/02/19 06:47:10;;;;;;;;;2.00;2.00;;;;;-147.17;100.00;-15917.19;5013216;28;52812;-58
2023/02/19 06:49:37;;;;;;;;;3.00;2.67;;;;;-147.17;100.00;-15917.19;5026678;28;51031;-59
2023/02/19 06:52:03;;;;;;;;;2.00;2.00;;;;;-147.17;100.00;-15917.19;5022344;28;51091;-58
2023/02/19 06:54:28;;;;;;;;;0.33;0.33;;;;;-147.17;100.00;-15917.19;5012767;28;51425;-58
2023/02/19 06:56:55;;;;;;;;;1.00;1.00;;;;;-147.17;100.00;-15917.19;5017460;28;51978;-59
2023/02/19 06:59:21;;;;;;;;;2.00;1.00;;;;;-147.17;100.00;-15917.19;5022702;28;51249;-59
2023/02/19 07:01:46;;;;;;;;;2.00;2.00;;;;;-147.17;100.00;-15917.19;5007332;28;51492;-57
2023/02/19 07:04:12;;;;;;;;;2.00;2.00;;;;;-147.17;100.00;-15917.19;5018086;28;51124;-59
2023/02/19 07:06:37;;;;;;;;;2.00;1.00;;;;;-147.17;100.00;-15917.19;5014246;28;51156;-59
2023/02/19 07:09:05;;;;;;;;;3.50;2.00;;;;;-147.17;100.00;-15917.19;5032413;28;51161;-58
2023/02/19 07:11:32;;;;;;;;;3.33;3.00;;;;;-147.17;100.00;-15917.19;5025502;28;51407;-57
2023/02/19 07:14:00;;;;;;;;;2.00;2.00;;;;;-147.17;100.00;-15917.19;5020772;28;51281;-58
2023/02/19 07:16:26;;;;;;;;;2.00;2.00;;;;;-147.17;100.00;-15917.19;5016748;28;51805;-58
2023/02/19 07:18:52;;;;;;;;;3.00;2.67;;;;;-147.17;100.00;-15917.19;5015439;28;51105;-61
2023/02/19 07:21:18;;;;;;;;;2.67;2.00;;;;;-147.17;100.00;-15917.19;5025619;28;51224;-58
2023/02/19 07:23:44;;;;;;;;;4.00;2.00;;;;;-147.17;100.00;-15917.19;5024670;28;51350;-59
2023/02/19 07:26:11;;;;;;;;;4.00;3.67;;;;;-147.17;100.00;-15917.19;5017035;28;51898;-59
2023/02/19 07:28:38;;;;;;;;;3.00;2.00;;;;;-147.17;100.00;-15917.19;5029257;28;51103;-59
2023/02/19 07:31:05;;;;;;;;;3.00;2.50;;;;;-147.17;100.00;-15917.19;5023178;28;51260;-58
2023/02/19 07:33:30;;;;;;;;;3.00;2.00;;;;;-147.17;100.00;-15917.19;5017760;28;51596;-57
2023/02/19 07:35:56;;;;;;;;;2.67;2.00;;;;;-147.17;100.00;-15917.19;5025367;28;51731;-58
2023/02/19 07:38:22;;;;;;;;;4.00;3.00;;;;;-147.17;100.00;-15917.19;5017307;28;51150;-58
2023/02/19 07:40:56;;;;;;;;;2.33;2.33;;;;;-147.17;100.00;-15917.19;5016715;28;51456;-59
2023/02/19 07:43:23;;;;;;;;;3.00;3.00;;;;;-147.17;100.00;-15917.19;5024773;28;51252;-58
2023/02/19 07:45:49;;;;;;;;;6.00;4.00;;;;;-147.17;100.00;-15917.19;5021559;28;51950;-59
2023/02/19 07:48:14;;;;;;;;;2.00;2.00;;;;;-147.17;100.00;-15917.19;5019908;28;51083;-58
2023/02/19 07:50:40;;;;;;;;;3.00;3.00;;;;;-147.17;100.00;-15917.19;5029254;28;52788;-58
2023/02/19 07:53:05;;;;;;;;;3.00;2.00;;;;;-147.17;100.00;-15917.19;5000839;28;51589;-58
2023/02/19 07:55:32;;;;;;;;;3.00;3.00;;;;;-147.17;100.00;-15917.19;5019667;28;52097;-59
2023/02/19 07:57:58;;;;;;;;;2.67;2.00;;;;;-147.17;100.00;-15917.19;5017065;28;51050;-59
2023/02/19 08:00:24;;;;;;;;;4.00;2.00;;;;;-147.17;100.00;-15917.19;5022925;28;50968;-57
2023/02/19 08:03:00;;;;;;;;;0.00;0.00;;;;;-147.17;100.00;-15917.19;5024822;28;51324;-59
2023/02/19 08:05:30;;;;;;;;;3.00;2.00;;;;;-147.17;100.00;-15917.19;4995596;28;52174;-58
2023/02/19 08:07:57;;;;;;;;;4.00;3.00;;;;;-147.17;100.00;-15917.19;5024096;28;51055;-58
2023/02/19 08:13:21;;;;;;;;;2.33;2.00;;;;;-147.17;100.00;-15917.19;5017960;28;51131;-59
2023/02/19 08:15:49;;;;;;;;;3.00;2.00;;;;;-147.17;100.00;-15917.19;5020130;28;52980;-58
2023/02/19 08:18:15;;;;;;;;;3.00;3.00;;;;;-147.17;100.00;-15917.19;5020248;28;51225;-59
2023/02/19 08:20:41;;;;;;;;;3.33;2.00;;;;;-147.17;100.00;-15917.19;5027525;28;51236;-58
2023/02/19 08:23:07;;;;;;;;;5.67;3.00;;;;;-147.17;100.00;-15917.19;5020899;28;51127;-58
2023/02/19 08:25:33;;;;;;;;;3.33;3.33;;;;;-147.17;100.00;-15917.19;5023004;28;52127;-58
2023/02/19 08:27:59;;;;;;;;;4.00;3.67;;;;;-147.17;100.00;-15917.19;5018811;28;51007;-58
2023/02/19 08:30:28;;;;;;;;;4.00;3.00;;;;;-147.17;100.00;-15917.19;5023242;28;51147;-58
2023/02/19 08:32:54;;;;;;;;;3.00;3.00;;;;;-147.17;100.00;-15917.19;5019893;28;51293;-59
2023/02/19 08:35:20;;;;;;;;;4.00;4.00;;;;;-147.17;100.00;-15917.19;5020656;28;52285;-57
2023/02/19 08:37:45;;;;;;;;;2.33;2.33;;;;;-147.17;100.00;-15917.19;5012990;28;51127;-59
2023/02/19 08:40:11;;;;;;;;;2.33;2.33;;;;;-147.17;100.00;-15917.19;5029711;28;51217;-59
2023/02/19 08:42:37;;;;;;;;;3.75;3.00;;;;;-147.17;100.00;-15917.19;5009230;28;50991;-58
2023/02/19 08:45:04;;;;;;;;;4.00;4.00;;;;;-147.17;100.00;-15917.19;5028197;28;51292;-59
2023/02/19 08:47:29;;;;;;;;;3.00;3.00;;;;;-147.17;100.00;-15917.19;5026997;28;51263;-58
2023/02/19 08:49:55;;;;;;;;;5.67;4.67;;;;;-147.17;100.00;-15917.19;5018446;28;51229;-58
2023/02/19 08:52:20;;;;;;;;;2.00;2.00;;;;;-147.17;100.00;-15917.19;5027493;28;51358;-57
2023/02/19 08:54:45;;;;;;;;;3.33;3.00;;;;;-147.17;100.00;-15917.19;5018692;28;51971;-60
2023/02/19 08:57:11;;;;;;;;;6.33;5.33;;;;;-147.17;100.00;-15917.19;5021264;28;51224;-58
2023/02/19 08:59:36;;;;;;;;;3.00;3.00;;;;;-147.17;100.00;-15917.19;5020895;28;51432;-58
2023/02/19 09:02:02;;;;;;;;;3.67;2.00;;;;;-147.17;100.00;-15917.19;5014396;28;51370;-58
2023/02/19 09:04:27;;;;;;;;;3.00;3.00;;;;;-147.17;100.00;-15917.19;5016156;28;51384;-59
2023/02/19 09:06:53;;;;;;;;;2.33;2.33;;;;;-147.17;100.00;-15917.19;5027744;28;51040;-58
2023/02/19 09:09:18;;;;;;;;;3.67;3.00;;;;;-147.17;100.00;-15917.19;5021396;28;51204;-59
2023/02/19 09:11:43;;;;;;;;;2.00;2.00;;;;;-147.17;100.00;-15917.19;5020467;28;51228;-59
2023/02/19 09:14:09;;;;;;;;;2.00;2.00;;;;;-147.17;100.00;-15917.19;5015285;28;51847;-59
2023/02/19 09:16:35;;;;;;;;;1.67;1.00;;;;;-147.17;100.00;-15917.19;5015932;28;51149;-59
2023/02/19 09:19:01;;;;;;;;;3.00;2.00;;;;;-147.17;100.00;-15917.19;5017404;28;51912;-59
2023/02/19 09:21:26;;;;;;;;;1.00;1.00;;;;;-147.17;100.00;-15917.19;5016581;28;51490;-58
2023/02/19 09:23:51;;;;;;;;;2.00;2.00;;;;;-147.17;100.00;-15917.19;5023039;28;51240;-59
2023/02/19 09:26:17;;;;;;;;;1.00;1.00;;;;;-147.17;100.00;-15917.19;5008371;28;51328;-59
2023/02/19 09:28:42;;;;;;;;;2.00;2.00;;;;;-147.17;100.00;-15917.19;5015513;28;51433;-60
2023/02/19 09:31:11;;;;;;;;;2.67;2.00;;;;;-147.17;100.00;-15917.19;5014818;28;51242;-58
2023/02/19 09:33:37;;;;;;;;;2.00;1.00;;;;;-147.17;100.00;-15917.19;5029431;28;51208;-61
2023/02/19 09:36:03;;;;;;;;;5.00;3.00;;;;;-147.17;100.00;-15917.19;5023349;28;51042;-59
2023/02/19 09:38:29;;;;;;;;;2.00;2.00;;;;;-147.17;100.00;-15917.19;4993292;28;51362;-61
2023/02/19 09:41:07;;;;;;;;;1.67;1.33;;;;;-147.17;100.00;-15917.19;5026514;28;52628;-61
2023/02/19 09:43:32;;;;;;;;;2.33;2.00;;;;;-147.17;100.00;-15917.19;5023910;28;51205;-61
2023/02/19 09:46:23;;;;;;;;;3.67;3.00;;;;;-147.17;100.00;-15917.19;5025302;28;51082;-60
2023/02/19 09:48:48;;;;;;;;;2.00;2.00;;;;;-147.17;100.00;-15917.19;5028284;28;51039;-60
2023/02/19 09:51:16;;;;;;;;;3.00;2.00;;;;;-147.17;100.00;-15917.19;5027500;28;51152;-61
2023/02/19 09:53:48;;;;;;;;;3.00;3.00;;;;;-147.17;100.00;-15917.19;5015390;28;52992;-59
2023/02/19 09:56:14;;;;;;;;;3.00;2.33;;;;;-147.17;100.00;-15917.19;5022997;28;51277;-59
2023/02/19 09:58:48;;;;;;;;;3.67;3.00;;;;;-147.17;100.00;-15917.19;5018999;28;51209;-59
2023/02/19 10:01:14;;;;;;;;;5.00;4.00;;;;;-147.17;100.00;-15917.19;5014208;28;51523;-59
2023/02/19 10:03:45;;;;;;;;;2.00;2.00;;;;;-147.17;100.00;-15917.19;5012250;28;51841;-59
2023/02/19 10:06:19;;;;;;;;;3.67;3.00;;;;;-147.17;100.00;-15917.19;5030506;28;51396;-60
2023/02/19 10:08:46;;;;;;;;;3.00;2.33;;;;;-147.17;100.00;-15917.19;5019324;28;51083;-60
2023/02/19 10:11:12;;;;;;;;;3.00;3.00;;;;;-147.17;100.00;-15917.19;5019908;28;51850;-60
2023/02/19 10:13:46;;;;;;;;;2.67;2.67;;;;;-147.17;100.00;-15917.19;5013118;28;51753;-60
2023/02/19 10:16:24;;;;;;;;;2.00;2.00;;;;;-147.17;100.00;-15917.19;5008281;28;51304;-60
2023/02/19 10:18:49;;;;;;;;;3.33;3.33;;;;;-147.17;100.00;-15917.19;5019479;28;51217;-60
2023/02/19 10:21:22;;;;;;;;;3.00;3.00;;;;;-147.17;100.00;-15917.19;5017229;28;51164;-60
2023/02/19 10:23:53;;;;;;;;;3.67;3.00;;;;;-147.17;100.00;-15917.19;5014863;28;52092;-59
2023/02/19 10:26:19;;;;;;;;;4.00;4.00;;;;;-147.17;100.00;-15917.19;5015384;28;51098;-60
2023/02/19 10:28:44;;;;;;;;;2.33;2.33;;;;;-147.17;100.00;-15917.19;5014671;28;51036;-60
2023/02/19 10:31:19;;;;;;;;;5.67;5.33;;;;;-147.17;100.00;-15917.19;5020455;28;51335;-62
2023/02/19 10:33:55;;;;;;;;;4.00;4.00;;;;;-147.17;100.00;-15917.19;5019891;28;51988;-59
2023/02/19 10:36:41;;;;;;;;;3.00;3.00;;;;;-147.17;100.00;-15917.19;5014256;28;51567;-60
2023/02/19 10:39:22;;;;;;;;;6.00;5.67;;;;;-147.17;100.00;-15917.19;5019190;28;52907;-60
2023/02/19 10:41:49;;;;;;;;;5.67;5.00;;;;;-147.17;100.00;-15917.19;5023500;28;51103;-60
2023/02/19 10:44:27;;;;;;;;;4.67;4.67;;;;;-147.17;100.00;-15917.19;5009486;28;53092;-61
2023/02/19 10:46:56;;;;;;;;;5.00;5.00;;;;;-147.17;100.00;-15917.19;5016420;28;51226;-61
2023/02/19 10:49:42;;;;;;;;;9.00;7.33;;;;;-147.17;100.00;-15917.19;5013925;28;51084;-60
2023/02/19 10:52:19;;;;;;;;;5.00;4.00;;;;;-147.17;100.00;-15917.19;5016418;28;51205;-60
2023/02/19 10:54:48;;;;;;;;;4.00;4.00;;;;;-147.17;100.00;-15917.19;5016228;28;52142;-60
2023/02/19 10:57:29;;;;;;;;;5.00;4.00;;;;;-147.17;100.00;-15917.19;5020821;28;51124;-60
2023/02/19 11:00:17;;;;;;;;;5.00;4.00;;;;;-147.17;100.00;-15917.19;5019205;28;51263;-60
2023/02/19 11:02:43;;;;;;;;;4.33;4.00;;;;;-147.17;100.00;-15917.19;5030517;28;51155;-60
2023/02/19 11:05:10;;;;;;;;;4.00;4.00;;;;;-147.17;100.00;-15917.19;5029131;28;51136;-60
2023/02/19 11:07:42;;;;;;;;;5.33;5.33;;;;;-147.17;100.00;-15917.19;5033734;28;50921;-62
2023/02/19 11:10:20;;;;;;;;;6.00;5.67;;;;;-147.17;100.00;-15917.19;5033820;28;51136;-60
2023/02/19 11:12:49;;;;;;;;;5.00;5.00;;;;;-147.17;100.00;-15917.19;5017976;28;51070;-60
2023/02/19 11:15:26;;;;;;;;;7.00;5.67;;;;;-147.17;100.00;-15917.19;5031963;28;51804;-60
2023/02/19 11:17:58;;;;;;;;;7.67;7.00;;;;;-147.17;100.00;-15917.19;5027808;28;51102;-60
2023/02/19 11:20:25;;;;;;;;;6.67;6.67;;;;;-147.17;100.00;-15917.19;5013793;28;51056;-60
2023/02/19 11:22:55;;;;;;;;;6.33;5.00;;;;;-147.17;100.00;-15917.19;5014373;28;51052;-59
2023/02/19 11:25:25;;;;;;;;;6.33;6.00;;;;;-147.17;100.00;-15917.19;5030711;28;51204;-60
2023/02/19 11:28:07;;;;;;;;;7.00;6.00;;;;;-147.17;100.00;-15917.19;5014977;28;51034;-61
2023/02/19 11:30:41;;;;;;;;;6.00;6.00;;;;;-147.17;100.00;-15917.19;5015370;28;50998;-60
2023/02/19 11:33:15;;;;;;;;;4.00;4.00;;;;;-147.17;100.00;-15917.19;5013271;28;51314;-59
2023/02/19 11:35:45;;;;;;;;;5.33;5.33;;;;;-147.17;100.00;-15917.19;5023265;28;53520;-59